createdAt,value
2019-05-15T00:01:16.430Z,5.40
2019-05-15T00:03:51.963Z,5.30
2019-05-15T00:06:24.762Z,5.40
2019-05-15T00:08:59.018Z,5.40
2019-05-15T00:11:32.886Z,5.40
2019-05-15T00:14:08.692Z,5.50
2019-05-15T00:16:42.592Z,5.50
2019-05-15T00:19:15.626Z,5.60
2019-05-15T00:24:44.797Z,5.40
2019-05-15T00:27:20.389Z,5.40
2019-05-15T00:29:58.325Z,5.50
2019-05-15T00:32:29.293Z,5.60
2019-05-15T00:35:01.321Z,5.60
2019-05-15T00:37:33.157Z,5.70
2019-05-15T00:40:05.489Z,5.70
2019-05-15T00:42:39.297Z,5.70
2019-05-15T00:45:13.209Z,5.60
2019-05-15T00:47:44.806Z,5.70
2019-05-15T00:50:18.222Z,5.60
2019-05-15T00:52:49.889Z,5.60
2019-05-15T00:55:21.166Z,5.50
2019-05-15T00:58:13.577Z,5.50
2019-05-15T01:00:48.628Z,5.50
2019-05-15T01:03:22.141Z,5.50
2019-05-15T01:05:55.103Z,5.60
2019-05-15T01:08:29.791Z,5.60
2019-05-15T01:11:04.073Z,5.60
2019-05-15T01:13:38.612Z,5.60
2019-05-15T01:16:11.051Z,5.50
2019-05-15T01:18:44.547Z,5.60
2019-05-15T01:21:18.792Z,5.60
2019-05-15T01:23:52.216Z,5.60
2019-05-15T01:26:24.362Z,5.60
2019-05-15T01:28:59.104Z,5.60
2019-05-15T01:31:34.257Z,5.60
2019-05-15T01:34:09.036Z,5.70
2019-05-15T01:36:44.968Z,5.80
2019-05-15T01:39:18.415Z,5.90
2019-05-15T01:41:51.071Z,6.00
2019-05-15T01:44:23.591Z,5.80
2019-05-15T01:46:59.073Z,5.90
2019-05-15T01:49:33.502Z,5.90
2019-05-15T01:52:08.051Z,5.80
2019-05-15T02:00:49.743Z,5.90
2019-05-15T02:03:25.576Z,5.80
2019-05-15T02:05:58.650Z,5.80
2019-05-15T02:08:32.143Z,5.70
2019-05-15T02:11:03.814Z,5.70
2019-05-15T02:13:38.718Z,5.80
2019-05-15T02:16:09.909Z,5.80
2019-05-15T02:18:44.035Z,5.70
2019-05-15T02:21:18.329Z,5.70
2019-05-15T02:23:51.629Z,5.70
2019-05-15T02:26:23.268Z,5.80
2019-05-15T02:28:57.038Z,5.70
2019-05-15T02:31:30.173Z,5.70
2019-05-15T02:34:05.421Z,5.90
2019-05-15T02:36:40.060Z,5.90
2019-05-15T02:39:13.141Z,5.90
2019-05-15T02:41:44.423Z,5.80
2019-05-15T02:44:19.608Z,5.80
2019-05-15T02:46:53.600Z,5.70
2019-05-15T02:49:29.928Z,5.70
2019-05-15T02:52:00.362Z,5.70
2019-05-15T02:54:40.029Z,5.70
2019-05-15T02:57:15.050Z,5.70
2019-05-15T02:59:50.555Z,5.80
2019-05-15T03:02:22.521Z,5.80
2019-05-15T03:04:55.620Z,5.80
2019-05-15T03:07:30.874Z,5.80
2019-05-15T03:10:04.192Z,5.80
2019-05-15T03:12:40.775Z,5.80
2019-05-15T03:15:14.619Z,5.80
2019-05-15T03:17:49.492Z,5.90
2019-05-15T03:20:21.706Z,5.90
2019-05-15T03:22:59.754Z,5.80
2019-05-15T03:28:19.036Z,5.90
2019-05-15T03:33:30.058Z,5.90
2019-05-15T03:36:03.023Z,5.90
2019-05-15T03:38:33.292Z,5.80
2019-05-15T03:41:04.688Z,5.80
2019-05-15T03:43:39.384Z,5.80
2019-05-15T03:46:11.729Z,5.80
2019-05-15T03:48:43.724Z,5.70
2019-05-15T03:51:15.573Z,5.70
2019-05-15T03:53:49.688Z,5.80
2019-05-15T03:56:23.536Z,5.80
2019-05-15T03:58:55.803Z,5.80
2019-05-15T04:01:37.140Z,5.80
2019-05-15T04:04:00.442Z,5.90
2019-05-15T04:06:32.071Z,6.10
2019-05-15T04:09:05.891Z,6.30
2019-05-15T04:11:38.831Z,6.40
2019-05-15T04:14:10.394Z,6.40
2019-05-15T04:16:42.937Z,6.20
2019-05-15T04:19:14.436Z,6.20
2019-05-15T04:21:49.139Z,6.20
2019-05-15T04:24:20.207Z,6.20
2019-05-15T04:26:53.178Z,6.30
2019-05-15T04:29:25.324Z,6.30
2019-05-15T04:32:02.473Z,6.40
2019-05-15T04:34:30.841Z,6.50
2019-05-15T04:37:02.442Z,6.70
2019-05-15T04:39:33.827Z,6.70
2019-05-15T04:42:08.102Z,6.70
2019-05-15T04:44:39.499Z,6.60
2019-05-15T04:47:12.439Z,6.60
2019-05-15T04:49:44.731Z,6.50
2019-05-15T04:52:19.354Z,6.60
2019-05-15T04:54:49.969Z,6.60
2019-05-15T04:57:21.302Z,6.80
2019-05-15T04:59:52.679Z,7.20
2019-05-15T05:02:27.191Z,7.60
2019-05-15T05:04:58.804Z,8.10
2019-05-15T05:07:30.727Z,9.00
2019-05-15T05:10:02.294Z,9.70
2019-05-15T05:12:33.502Z,10.40
2019-05-15T05:15:09.823Z,10.50
2019-05-15T05:17:44.717Z,9.90
2019-05-15T05:20:17.863Z,9.50
2019-05-15T05:22:50.138Z,9.40
2019-05-15T05:25:23.908Z,9.40
2019-05-15T05:27:58.035Z,9.30
2019-05-15T05:30:31.339Z,9.20
2019-05-15T05:33:08.336Z,8.90
2019-05-15T05:35:40.628Z,8.60
2019-05-15T05:38:13.389Z,8.40
2019-05-15T05:40:49.149Z,8.20
2019-05-15T05:43:20.282Z,8.20
2019-05-15T05:45:53.575Z,8.40
2019-05-15T05:48:26.318Z,8.50
2019-05-15T05:50:58.544Z,8.40
2019-05-15T05:53:32.632Z,8.40
2019-05-15T05:56:04.030Z,8.20
2019-05-15T05:58:38.926Z,8.10
2019-05-15T06:01:23.266Z,8.10
2019-05-15T06:03:54.724Z,8.20
2019-05-15T06:06:29.248Z,8.40
2019-05-15T06:09:05.270Z,8.40
2019-05-15T06:11:38.485Z,8.30
2019-05-15T06:14:13.693Z,8.20
2019-05-15T06:16:45.052Z,8.00
2019-05-15T06:19:18.721Z,8.00
2019-05-15T06:21:57.393Z,8.00
2019-05-15T06:24:30.621Z,7.90
2019-05-15T06:27:02.142Z,7.80
2019-05-15T06:29:33.797Z,7.90
2019-05-15T06:32:08.552Z,8.00
2019-05-15T06:34:57.766Z,8.10
2019-05-15T06:37:28.891Z,8.30
2019-05-15T06:40:02.393Z,8.40
2019-05-15T06:42:39.478Z,8.40
2019-05-15T06:45:14.973Z,8.40
2019-05-15T06:47:48.307Z,8.40
2019-05-15T06:50:38.250Z,8.40
2019-05-15T06:53:11.195Z,8.40
2019-05-15T06:55:42.539Z,8.30
2019-05-15T06:58:14.524Z,8.20
2019-05-15T07:00:49.227Z,8.30
2019-05-15T07:03:25.676Z,8.20
2019-05-15T07:06:09.491Z,8.30
2019-05-15T07:08:40.693Z,8.50
2019-05-15T07:11:12.053Z,8.70
2019-05-15T07:13:48.476Z,8.90
2019-05-15T07:16:20.913Z,9.20
2019-05-15T07:18:52.906Z,9.50
2019-05-15T07:21:25.382Z,9.60
2019-05-15T07:23:58.402Z,9.80
2019-05-15T07:26:31.241Z,9.90
2019-05-15T07:29:04.382Z,10.00
2019-05-15T07:31:38.381Z,10.10
2019-05-15T07:34:15.610Z,9.90
2019-05-15T07:36:49.394Z,10.00
2019-05-15T07:39:21.415Z,10.20
2019-05-15T07:41:53.182Z,10.40
2019-05-15T07:47:14.637Z,10.50
2019-05-15T07:49:49.137Z,10.70
2019-05-15T07:52:20.884Z,11.00
2019-05-15T07:54:52.948Z,11.50
2019-05-15T07:57:24.389Z,12.10
2019-05-15T07:59:58.788Z,12.30
2019-05-15T08:02:32.430Z,12.40
2019-05-15T08:05:05.649Z,12.40
2019-05-15T08:07:39.093Z,12.80
2019-05-15T08:10:11.707Z,13.00
2019-05-15T08:12:43.338Z,12.90
2019-05-15T08:15:18.393Z,13.00
2019-05-15T08:18:03.957Z,12.70
2019-05-15T08:20:24.617Z,12.60
2019-05-15T08:22:59.080Z,12.50
2019-05-15T08:25:35.309Z,12.50
2019-05-15T08:28:25.847Z,12.00
2019-05-15T08:30:59.083Z,12.10
2019-05-15T08:39:49.634Z,12.80
2019-05-15T08:45:24.824Z,14.10
2019-05-15T08:47:59.084Z,14.00
2019-05-15T08:50:30.623Z,14.40
2019-05-15T08:53:02.349Z,15.00
2019-05-15T08:55:39.042Z,16.00
2019-05-15T08:58:14.093Z,16.30
2019-05-15T09:00:51.747Z,16.40
2019-05-15T09:03:18.431Z,16.50
2019-05-15T09:05:50.802Z,16.60
2019-05-15T09:08:22.669Z,16.30
2019-05-15T09:10:54.101Z,16.50
2019-05-15T09:13:25.476Z,16.50
2019-05-15T09:16:01.688Z,16.60
2019-05-15T09:18:34.333Z,16.90
2019-05-15T09:21:08.763Z,16.70
2019-05-15T09:23:40.326Z,16.30
2019-05-15T09:26:13.172Z,17.10
2019-05-15T09:28:44.897Z,17.70
2019-05-15T09:31:19.026Z,17.20
2019-05-15T09:33:50.088Z,17.70
2019-05-15T09:36:21.842Z,17.70
2019-05-15T09:38:53.220Z,17.20
2019-05-15T09:41:28.551Z,16.70
2019-05-15T09:43:59.821Z,16.10
2019-05-15T09:46:31.445Z,15.90
2019-05-15T09:49:03.618Z,15.40
2019-05-15T09:51:38.535Z,15.00
2019-05-15T09:54:12.153Z,14.60
2019-05-15T09:56:43.608Z,14.40
2019-05-15T09:59:18.397Z,14.30
2019-05-15T10:01:48.457Z,13.80
2019-05-15T10:04:21.453Z,14.10
2019-05-15T10:06:52.832Z,14.00
2019-05-15T10:09:28.529Z,14.10
2019-05-15T10:12:00.014Z,13.90
2019-05-15T10:14:34.073Z,13.90
2019-05-15T10:17:05.383Z,14.10
2019-05-15T10:19:37.741Z,14.50
2019-05-15T10:22:10.538Z,15.00
2019-05-15T10:24:42.222Z,15.20
2019-05-15T10:27:18.103Z,15.30
2019-05-15T10:29:49.683Z,15.00
2019-05-15T10:32:21.189Z,14.90
2019-05-15T10:34:53.308Z,14.90
2019-05-15T10:37:24.801Z,15.40
2019-05-15T10:39:58.450Z,15.50
2019-05-15T10:42:30.129Z,15.40
2019-05-15T10:45:04.775Z,15.40
2019-05-15T10:47:38.859Z,15.10
2019-05-15T10:50:12.436Z,15.00
2019-05-15T10:52:44.072Z,15.10
2019-05-15T10:55:18.821Z,15.10
2019-05-15T10:57:49.087Z,15.30
2019-05-15T11:00:21.725Z,15.20
2019-05-15T11:02:53.455Z,15.00
2019-05-15T11:05:38.411Z,14.70
2019-05-15T11:07:59.817Z,14.50
2019-05-15T11:10:34.405Z,14.40
2019-05-15T11:13:05.929Z,14.20
2019-05-15T11:15:40.529Z,14.00
2019-05-15T11:18:13.102Z,14.00
2019-05-15T11:20:48.773Z,13.90
2019-05-15T11:23:20.500Z,13.80
2019-05-15T11:25:52.116Z,13.50
2019-05-15T11:28:24.736Z,13.20
2019-05-15T11:30:59.173Z,13.20
2019-05-15T11:33:29.553Z,12.90
2019-05-15T11:36:05.896Z,12.60
2019-05-15T11:38:33.888Z,12.30
2019-05-15T11:41:08.634Z,12.10
2019-05-15T11:43:39.988Z,11.80
2019-05-15T11:46:12.031Z,11.30
2019-05-15T11:48:43.203Z,10.70
2019-05-15T11:51:14.772Z,10.20
2019-05-15T11:53:49.042Z,10.10
2019-05-15T11:59:09.976Z,10.10
2019-05-15T12:01:41.121Z,10.10
2019-05-15T12:04:26.727Z,9.90
2019-05-15T12:06:58.761Z,9.60
2019-05-15T12:09:21.791Z,9.30
2019-05-15T12:11:57.421Z,9.30
2019-05-15T12:14:30.441Z,9.30
2019-05-15T12:17:10.882Z,9.30
2019-05-15T12:19:35.351Z,9.30
2019-05-15T12:22:09.768Z,9.20
2019-05-15T12:24:41.063Z,9.20
2019-05-15T12:27:18.151Z,9.20
2019-05-15T12:29:49.123Z,9.20
2019-05-15T12:34:53.239Z,9.20
2019-05-15T12:37:28.506Z,9.20
2019-05-15T13:00:35.444Z,9.70
2019-05-15T13:03:09.268Z,9.70
2019-05-15T13:05:41.518Z,9.70
2019-05-15T13:08:12.941Z,9.60
2019-05-15T13:10:44.228Z,9.70
2019-05-15T13:13:18.735Z,9.80
2019-05-15T13:15:50.070Z,9.80
2019-05-15T13:18:23.763Z,9.90
2019-05-15T13:20:56.810Z,9.90
2019-05-15T13:23:28.708Z,9.80
2019-05-15T13:26:00.697Z,9.80
2019-05-15T13:28:32.855Z,9.80
2019-05-15T13:31:09.187Z,9.70
2019-05-15T13:33:43.782Z,9.70
2019-05-15T13:36:15.244Z,9.70
2019-05-15T13:38:48.597Z,9.70
2019-05-15T13:41:20.499Z,9.70
2019-05-15T13:43:52.215Z,9.70
2019-05-15T13:46:25.072Z,9.40
2019-05-15T13:48:59.530Z,9.30
2019-05-15T13:51:33.176Z,9.10
2019-05-15T13:54:04.766Z,9.10
2019-05-15T13:56:38.054Z,9.10
2019-05-15T13:59:09.604Z,9.10
2019-05-15T14:01:42.297Z,9.10
2019-05-15T14:04:14.796Z,9.20
2019-05-15T14:06:48.734Z,9.20
2019-05-15T14:09:20.355Z,9.20
2019-05-15T14:11:52.285Z,9.30
2019-05-15T14:14:24.799Z,9.50
2019-05-15T14:16:59.201Z,9.40
2019-05-15T14:19:30.563Z,9.30
2019-05-15T14:22:02.783Z,9.30
2019-05-15T14:24:34.572Z,9.40
2019-05-15T14:27:08.698Z,9.60
2019-05-15T14:29:42.702Z,9.60
2019-05-15T14:32:14.360Z,9.50
2019-05-15T14:34:48.390Z,9.40
2019-05-15T14:37:19.256Z,9.40
2019-05-15T14:39:53.453Z,9.20
2019-05-15T14:42:25.002Z,9.30
2019-05-15T14:44:59.210Z,9.30
2019-05-15T14:47:31.884Z,9.30
2019-05-15T14:50:03.944Z,9.40
2019-05-15T14:52:35.705Z,9.40
2019-05-15T14:55:09.270Z,9.40
2019-05-15T14:57:42.606Z,9.40
2019-05-15T15:00:19.918Z,9.30
2019-05-15T15:02:51.056Z,9.40
2019-05-15T15:05:23.283Z,9.40
2019-05-15T15:07:58.509Z,9.30
2019-05-15T15:10:29.713Z,9.40
2019-05-15T15:13:04.319Z,9.40
2019-05-15T15:15:38.119Z,9.40
2019-05-15T15:18:12.210Z,9.40
2019-05-15T15:20:45.318Z,9.40
2019-05-15T15:23:18.603Z,9.40
2019-05-15T15:25:52.456Z,9.30
2019-05-15T15:28:25.340Z,9.40
2019-05-15T15:31:00.385Z,9.30
2019-05-15T15:33:34.742Z,9.30
2019-05-15T15:36:09.460Z,9.20
2019-05-15T15:38:44.013Z,9.20
2019-05-15T15:41:17.389Z,9.20
2019-05-15T15:43:52.141Z,9.10
2019-05-15T15:46:22.242Z,9.10
2019-05-15T15:48:55.380Z,9.10
2019-05-15T15:51:28.708Z,9.00
2019-05-15T15:54:01.513Z,8.90
2019-05-15T15:56:34.716Z,8.90
2019-05-15T15:59:08.773Z,8.90
2019-05-15T16:01:42.355Z,8.90
2019-05-15T16:04:15.518Z,9.00
2019-05-15T16:06:48.421Z,8.90
2019-05-15T16:09:40.621Z,8.90
2019-05-15T16:12:12.261Z,9.00
2019-05-15T16:14:50.329Z,8.90
2019-05-15T16:17:28.461Z,9.00
2019-05-15T16:20:02.961Z,9.00
2019-05-15T16:22:38.599Z,9.00
2019-05-15T16:25:12.714Z,9.00
2019-05-15T16:27:48.729Z,9.10
2019-05-15T16:30:21.075Z,9.10
2019-05-15T16:32:54.733Z,9.10
2019-05-15T16:35:28.825Z,9.10
2019-05-15T16:38:02.763Z,9.20
2019-05-15T16:40:38.215Z,9.30
2019-05-15T16:43:10.604Z,9.30
2019-05-15T16:45:43.456Z,9.30
2019-05-15T16:48:15.472Z,9.30
2019-05-15T16:50:48.855Z,9.30
2019-05-15T16:53:21.732Z,9.30
2019-05-15T16:55:55.223Z,9.30
2019-05-15T16:58:29.657Z,9.20
2019-05-15T17:01:01.842Z,9.20
2019-05-15T17:03:34.774Z,9.20
2019-05-15T17:06:09.426Z,9.20
2019-05-15T17:08:43.751Z,9.20
2019-05-15T17:11:19.686Z,9.20
2019-05-15T17:13:52.532Z,9.20
2019-05-15T17:16:26.234Z,9.20
2019-05-15T17:18:58.267Z,9.20
2019-05-15T17:21:30.133Z,9.20
2019-05-15T17:24:01.905Z,9.20
2019-05-15T17:26:33.935Z,9.20
2019-05-15T17:29:08.991Z,9.20
2019-05-15T17:31:43.110Z,9.20
2019-05-15T17:34:15.107Z,9.20
2019-05-15T17:37:02.302Z,9.20
2019-05-15T17:39:41.396Z,9.20
2019-05-15T17:42:10.753Z,9.20
2019-05-15T17:44:42.675Z,9.20
2019-05-15T17:47:14.299Z,9.20
2019-05-15T17:49:48.879Z,9.20
2019-05-15T17:52:20.783Z,9.20
2019-05-15T17:54:53.323Z,9.20
2019-05-15T17:57:28.464Z,9.20
2019-05-15T17:59:59.280Z,9.30
2019-05-15T18:02:32.486Z,9.20
2019-05-15T18:05:05.606Z,9.20
2019-05-15T18:07:38.970Z,9.20
2019-05-15T18:10:12.702Z,9.10
2019-05-15T18:12:46.058Z,9.00
2019-05-15T18:15:17.980Z,9.10
2019-05-15T18:17:50.466Z,9.10
2019-05-15T18:20:31.180Z,9.10
2019-05-15T18:23:02.998Z,9.20
2019-05-15T18:25:35.400Z,9.20
2019-05-15T18:28:08.541Z,9.10
2019-05-15T18:30:42.102Z,9.10
2019-05-15T18:33:13.895Z,9.10
2019-05-15T18:35:48.492Z,9.10
2019-05-15T18:38:21.090Z,9.10
2019-05-15T18:40:55.087Z,9.10
2019-05-15T18:43:28.590Z,9.00
2019-05-15T18:46:01.204Z,9.00
2019-05-15T18:48:33.101Z,9.00
2019-05-15T18:51:08.072Z,9.10
2019-05-15T18:53:40.475Z,9.00
2019-05-15T18:56:12.231Z,8.90
2019-05-15T18:58:48.513Z,9.00
2019-05-15T19:01:23.067Z,9.10
2019-05-15T19:03:55.103Z,9.00
2019-05-15T19:06:29.202Z,8.90
2019-05-15T19:09:02.605Z,8.90
2019-05-15T19:11:38.390Z,8.80
2019-05-15T19:14:11.868Z,8.90
2019-05-15T19:16:43.872Z,8.80
2019-05-15T19:19:18.574Z,8.70
2019-05-15T19:21:51.625Z,8.80
2019-05-15T19:24:24.486Z,8.70
2019-05-15T19:27:08.015Z,8.70
2019-05-15T19:29:43.195Z,8.60
2019-05-15T19:32:17.762Z,8.60
2019-05-15T19:34:52.097Z,8.60
2019-05-15T19:37:28.773Z,8.60
2019-05-15T19:40:03.309Z,8.60
2019-05-15T19:42:38.475Z,8.60
2019-05-15T19:45:13.513Z,8.60
2019-05-15T19:47:47.848Z,8.50
2019-05-15T19:50:22.013Z,8.40
2019-05-15T19:52:53.686Z,8.40
2019-05-15T19:55:29.259Z,8.40
2019-05-15T19:58:04.173Z,8.40
2019-05-15T20:00:38.759Z,8.40
2019-05-15T20:03:17.702Z,8.30
2019-05-15T20:05:52.134Z,8.30
2019-05-15T20:08:27.849Z,8.30
2019-05-15T20:11:03.407Z,8.30
2019-05-15T20:13:40.262Z,8.30
2019-05-15T20:16:20.587Z,8.30
2019-05-15T20:18:54.865Z,8.20
2019-05-15T20:21:29.830Z,8.00
2019-05-15T20:24:03.176Z,8.00
2019-05-15T20:26:38.124Z,7.90
2019-05-15T20:29:13.588Z,7.90
2019-05-15T20:31:48.354Z,7.80
2019-05-15T20:34:28.542Z,7.80
2019-05-15T20:37:02.751Z,7.70
2019-05-15T20:39:38.646Z,7.60
2019-05-15T20:42:13.841Z,7.50
2019-05-15T20:44:48.602Z,7.50
2019-05-15T20:47:21.780Z,7.50
2019-05-15T20:49:55.407Z,7.50
2019-05-15T20:52:28.543Z,7.40
2019-05-15T20:55:01.150Z,7.40
2019-05-15T20:57:34.198Z,7.30
2019-05-15T21:00:13.555Z,7.30
2019-05-15T21:02:45.613Z,7.30
2019-05-15T21:05:18.698Z,7.20
2019-05-15T21:07:53.652Z,7.20
2019-05-15T21:10:27.649Z,7.20
2019-05-15T21:13:02.078Z,7.10
2019-05-15T21:15:34.111Z,7.10
2019-05-15T21:18:14.295Z,7.10
2019-05-15T21:21:00.092Z,7.00
2019-05-15T21:23:32.439Z,7.00
2019-05-15T21:26:07.798Z,7.00
2019-05-15T21:28:42.920Z,6.90
2019-05-15T21:31:15.429Z,6.90
2019-05-15T21:33:50.457Z,6.90
2019-05-15T21:36:24.132Z,6.90
2019-05-15T21:38:58.615Z,6.80
2019-05-15T21:41:32.394Z,6.80
2019-05-15T21:44:05.387Z,6.80
2019-05-15T21:46:39.475Z,6.80
2019-05-15T21:49:12.695Z,6.90
2019-05-15T21:51:47.799Z,6.90
2019-05-15T21:54:21.757Z,6.90
2019-05-15T21:57:06.788Z,6.80
2019-05-15T21:59:30.453Z,6.70
2019-05-15T22:02:05.358Z,6.80
2019-05-15T22:04:51.795Z,6.80
2019-05-15T22:07:17.793Z,6.80
2019-05-15T22:10:10.972Z,6.70
2019-05-15T22:12:48.199Z,6.70
2019-05-15T22:15:21.878Z,6.70
2019-05-15T22:17:54.532Z,6.70
2019-05-15T22:20:30.556Z,6.70
2019-05-15T22:23:03.650Z,6.60
2019-05-15T22:25:38.544Z,6.60
2019-05-15T22:28:11.751Z,6.60
2019-05-15T22:30:48.790Z,6.60
2019-05-15T22:33:23.668Z,6.60
2019-05-15T22:35:59.328Z,6.60
2019-05-15T22:38:33.065Z,6.60
2019-05-15T22:41:10.261Z,6.50
2019-05-15T22:43:43.662Z,6.50
2019-05-15T22:46:18.443Z,6.50
2019-05-15T22:48:53.362Z,6.50
2019-05-15T22:51:28.885Z,6.50
2019-05-15T22:54:05.301Z,6.50
2019-05-15T22:56:38.252Z,6.50
2019-05-15T22:59:11.087Z,6.50
2019-05-15T23:01:45.866Z,6.50
2019-05-15T23:04:22.104Z,6.40
2019-05-15T23:06:56.529Z,6.40
2019-05-15T23:09:30.306Z,6.40
2019-05-15T23:12:04.263Z,6.30
2019-05-15T23:14:37.920Z,6.30
2019-05-15T23:17:10.432Z,6.30
2019-05-15T23:19:44.331Z,6.30
2019-05-15T23:22:18.549Z,6.30
2019-05-15T23:24:50.615Z,6.20
2019-05-15T23:27:24.502Z,6.30
2019-05-15T23:29:58.167Z,6.30
2019-05-15T23:32:32.335Z,6.30
2019-05-15T23:35:08.232Z,6.30
2019-05-15T23:37:40.477Z,6.30
2019-05-15T23:40:19.929Z,6.20
2019-05-15T23:42:57.831Z,6.20
2019-05-15T23:45:31.258Z,6.10
2019-05-15T23:48:05.732Z,6.10
2019-05-15T23:50:39.217Z,6.10
2019-05-15T23:53:19.726Z,6.00
2019-05-15T23:55:53.840Z,6.10
2019-05-15T23:58:29.206Z,6.10
